sensor_id;sensor_type;location;lat;lon;timestamp;temperature;humidity
65072;DHT22;51663;52.310;17.016;2024-03-23T00:54:05;32.30;33.40
65072;DHT22;51663;52.310;17.016;2024-03-23T00:57:07;32.10;33.50
65072;DHT22;51663;52.310;17.016;2024-03-23T01:00:08;32.00;33.80
65072;DHT22;51663;52.310;17.016;2024-03-23T01:03:11;32.30;33.60
65072;DHT22;51663;52.310;17.016;2024-03-23T01:06:12;32.20;33.40
65072;DHT22;51663;52.310;17.016;2024-03-23T01:09:14;32.20;33.60
65072;DHT22;51663;52.310;17.016;2024-03-23T01:12:15;32.10;33.40
65072;DHT22;51663;52.310;17.016;2024-03-23T01:15:16;32.00;34.00
65072;DHT22;51663;52.310;17.016;2024-03-23T01:18:18;32.20;33.70
65072;DHT22;51663;52.310;17.016;2024-03-23T01:21:19;32.30;33.40
65072;DHT22;51663;52.310;17.016;2024-03-23T01:24:20;32.40;33.20
65072;DHT22;51663;52.310;17.016;2024-03-23T01:27:22;32.40;33.20
65072;DHT22;51663;52.310;17.016;2024-03-23T01:30:23;32.20;33.40
65072;DHT22;51663;52.310;17.016;2024-03-23T01:33:25;32.30;33.60
65072;DHT22;51663;52.310;17.016;2024-03-23T01:36:26;32.10;33.50
65072;DHT22;51663;52.310;17.016;2024-03-23T01:39:27;31.90;33.90
65072;DHT22;51663;52.310;17.016;2024-03-23T01:42:28;31.80;34.00
65072;DHT22;51663;52.310;17.016;2024-03-23T01:45:33;31.80;34.20
65072;DHT22;51663;52.310;17.016;2024-03-23T01:48:34;31.80;34.30
65072;DHT22;51663;52.310;17.016;2024-03-23T01:51:37;31.90;34.10
65072;DHT22;51663;52.310;17.016;2024-03-23T01:54:39;31.80;34.00
65072;DHT22;51663;52.310;17.016;2024-03-23T01:57:41;31.80;34.20
65072;DHT22;51663;52.310;17.016;2024-03-23T02:00:42;31.80;34.20
65072;DHT22;51663;52.310;17.016;2024-03-23T02:03:44;32.00;34.00
65072;DHT22;51663;52.310;17.016;2024-03-23T02:06:45;31.90;34.00
65072;DHT22;51663;52.310;17.016;2024-03-23T02:09:46;31.90;34.20
65072;DHT22;51663;52.310;17.016;2024-03-23T02:12:47;31.90;34.10
65072;DHT22;51663;52.310;17.016;2024-03-23T02:15:49;31.90;34.10
65072;DHT22;51663;52.310;17.016;2024-03-23T02:18:50;31.90;34.20
65072;DHT22;51663;52.310;17.016;2024-03-23T02:21:51;31.80;34.10
65072;DHT22;51663;52.310;17.016;2024-03-23T02:24:52;31.90;34.20
65072;DHT22;51663;52.310;17.016;2024-03-23T02:27:53;32.00;34.10
65072;DHT22;51663;52.310;17.016;2024-03-23T02:30:55;32.10;34.00
65072;DHT22;51663;52.310;17.016;2024-03-23T02:33:56;31.90;33.90
65072;DHT22;51663;52.310;17.016;2024-03-23T02:36:57;31.60;34.30
65072;DHT22;51663;52.310;17.016;2024-03-23T02:39:59;31.80;34.30
65072;DHT22;51663;52.310;17.016;2024-03-23T02:43:00;31.70;34.40
65072;DHT22;51663;52.310;17.016;2024-03-23T02:46:01;32.00;34.00
65072;DHT22;51663;52.310;17.016;2024-03-23T02:49:03;31.80;34.20
65072;DHT22;51663;52.310;17.016;2024-03-23T02:52:05;32.00;34.10
65072;DHT22;51663;52.310;17.016;2024-03-23T02:55:07;31.70;34.50
65072;DHT22;51663;52.310;17.016;2024-03-23T02:58:08;31.70;34.60
65072;DHT22;51663;52.310;17.016;2024-03-23T03:01:09;31.70;34.50
65072;DHT22;51663;52.310;17.016;2024-03-23T03:04:11;31.80;34.40
65072;DHT22;51663;52.310;17.016;2024-03-23T03:07:12;31.70;34.50
65072;DHT22;51663;52.310;17.016;2024-03-23T03:10:13;31.70;34.30
65072;DHT22;51663;52.310;17.016;2024-03-23T03:13:15;31.40;34.70
65072;DHT22;51663;52.310;17.016;2024-03-23T03:16:16;31.50;34.70
65072;DHT22;51663;52.310;17.016;2024-03-23T03:19:17;31.80;34.50
65072;DHT22;51663;52.310;17.016;2024-03-23T03:22:18;31.70;34.30
65072;DHT22;51663;52.310;17.016;2024-03-23T03:25:19;31.80;34.40
65072;DHT22;51663;52.310;17.016;2024-03-23T03:28:21;32.10;34.00
65072;DHT22;51663;52.310;17.016;2024-03-23T03:31:22;32.30;33.90
65072;DHT22;51663;52.310;17.016;2024-03-23T03:34:23;32.40;33.60
65072;DHT22;51663;52.310;17.016;2024-03-23T03:37:24;32.40;33.40
65072;DHT22;51663;52.310;17.016;2024-03-23T03:40:26;32.40;33.40
65072;DHT22;51663;52.310;17.016;2024-03-23T03:43:27;32.40;33.50
65072;DHT22;51663;52.310;17.016;2024-03-23T03:46:28;32.30;33.60
65072;DHT22;51663;52.310;17.016;2024-03-23T03:49:30;32.30;33.60
65072;DHT22;51663;52.310;17.016;2024-03-23T03:52:31;32.30;33.60
65072;DHT22;51663;52.310;17.016;2024-03-23T03:55:32;32.30;33.60
65072;DHT22;51663;52.310;17.016;2024-03-23T03:58:33;32.30;33.70
65072;DHT22;51663;52.310;17.016;2024-03-23T04:01:34;32.10;33.80
65072;DHT22;51663;52.310;17.016;2024-03-23T04:04:36;32.20;33.70
65072;DHT22;51663;52.310;17.016;2024-03-23T04:07:38;32.30;33.60
65072;DHT22;51663;52.310;17.016;2024-03-23T04:10:39;32.40;33.50
65072;DHT22;51663;52.310;17.016;2024-03-23T04:13:41;32.50;33.40
65072;DHT22;51663;52.310;17.016;2024-03-23T04:16:43;32.40;33.40
65072;DHT22;51663;52.310;17.016;2024-03-23T04:19:44;32.50;33.30
65072;DHT22;51663;52.310;17.016;2024-03-23T04:22:46;32.50;33.40
65072;DHT22;51663;52.310;17.016;2024-03-23T04:25:47;32.50;33.40
65072;DHT22;51663;52.310;17.016;2024-03-23T04:28:48;32.50;33.30
65072;DHT22;51663;52.310;17.016;2024-03-23T04:31:49;32.60;33.30
65072;DHT22;51663;52.310;17.016;2024-03-23T04:34:51;32.50;33.00
65072;DHT22;51663;52.310;17.016;2024-03-23T04:37:52;32.50;33.00
65072;DHT22;51663;52.310;17.016;2024-03-23T04:40:56;32.50;33.00
65072;DHT22;51663;52.310;17.016;2024-03-23T04:43:57;32.40;33.00
65072;DHT22;51663;52.310;17.016;2024-03-23T04:46:59;32.30;33.10
65072;DHT22;51663;52.310;17.016;2024-03-23T04:50:02;32.40;33.10
65072;DHT22;51663;52.310;17.016;2024-03-23T04:53:04;32.40;33.10
65072;DHT22;51663;52.310;17.016;2024-03-23T04:56:05;32.30;33.10
65072;DHT22;51663;52.310;17.016;2024-03-23T04:59:07;32.20;33.20
65072;DHT22;51663;52.310;17.016;2024-03-23T05:02:08;32.30;33.40
65072;DHT22;51663;52.310;17.016;2024-03-23T05:05:09;32.40;33.30
65072;DHT22;51663;52.310;17.016;2024-03-23T05:08:10;32.30;33.20
65072;DHT22;51663;52.310;17.016;2024-03-23T05:11:12;32.40;33.10
65072;DHT22;51663;52.310;17.016;2024-03-23T05:14:13;30.20;33.80
65072;DHT22;51663;52.310;17.016;2024-03-23T05:17:15;29.40;35.10
65072;DHT22;51663;52.310;17.016;2024-03-23T05:20:16;29.60;34.20
65072;DHT22;51663;52.310;17.016;2024-03-23T05:23:17;28.90;34.30
65072;DHT22;51663;52.310;17.016;2024-03-23T05:26:18;28.60;34.80
65072;DHT22;51663;52.310;17.016;2024-03-23T05:29:20;27.90;35.70
65072;DHT22;51663;52.310;17.016;2024-03-23T05:32:22;27.70;36.50
65072;DHT22;51663;52.310;17.016;2024-03-23T05:35:23;28.30;35.50
65072;DHT22;51663;52.310;17.016;2024-03-23T05:38:25;28.20;35.80
65072;DHT22;51663;52.310;17.016;2024-03-23T05:41:26;28.70;35.00
65072;DHT22;51663;52.310;17.016;2024-03-23T05:44:27;28.30;35.30
65072;DHT22;51663;52.310;17.016;2024-03-23T05:47:29;28.30;35.30
65072;DHT22;51663;52.310;17.016;2024-03-23T05:50:30;28.50;34.90
65072;DHT22;51663;52.310;17.016;2024-03-23T05:53:31;27.80;35.80
65072;DHT22;51663;52.310;17.016;2024-03-23T05:56:33;27.60;36.90
65072;DHT22;51663;52.310;17.016;2024-03-23T05:59:34;28.40;35.10
65072;DHT22;51663;52.310;17.016;2024-03-23T06:02:36;28.70;34.70
65072;DHT22;51663;52.310;17.016;2024-03-23T06:05:37;29.00;34.30
65072;DHT22;51663;52.310;17.016;2024-03-23T06:08:39;28.00;35.20
65072;DHT22;51663;52.310;17.016;2024-03-23T06:11:40;28.70;35.00
65072;DHT22;51663;52.310;17.016;2024-03-23T06:14:41;29.00;34.70
65072;DHT22;51663;52.310;17.016;2024-03-23T06:17:43;28.30;34.40
65072;DHT22;51663;52.310;17.016;2024-03-23T06:20:44;28.10;35.30
65072;DHT22;51663;52.310;17.016;2024-03-23T06:23:45;28.00;35.00
65072;DHT22;51663;52.310;17.016;2024-03-23T06:26:52;27.80;35.00
65072;DHT22;51663;52.310;17.016;2024-03-23T06:29:53;27.90;35.10
65072;DHT22;51663;52.310;17.016;2024-03-23T06:32:54;29.00;33.70
65072;DHT22;51663;52.310;17.016;2024-03-23T06:35:55;28.10;33.80
65072;DHT22;51663;52.310;17.016;2024-03-23T06:38:57;28.50;34.20
65072;DHT22;51663;52.310;17.016;2024-03-23T06:41:58;27.30;35.00
65072;DHT22;51663;52.310;17.016;2024-03-23T06:44:59;28.10;34.50
65072;DHT22;51663;52.310;17.016;2024-03-23T06:48:00;28.60;33.50
65072;DHT22;51663;52.310;17.016;2024-03-23T06:51:02;28.70;33.40
65072;DHT22;51663;52.310;17.016;2024-03-23T06:54:04;28.80;33.50
65072;DHT22;51663;52.310;17.016;2024-03-23T06:57:06;27.90;34.10
65072;DHT22;51663;52.310;17.016;2024-03-23T07:00:08;28.00;34.90
65072;DHT22;51663;52.310;17.016;2024-03-23T07:03:10;28.40;34.50
65072;DHT22;51663;52.310;17.016;2024-03-23T07:06:12;28.30;34.80
65072;DHT22;51663;52.310;17.016;2024-03-23T07:09:13;28.70;34.00
65072;DHT22;51663;52.310;17.016;2024-03-23T07:12:14;28.90;33.90
65072;DHT22;51663;52.310;17.016;2024-03-23T07:15:15;29.20;33.20
65072;DHT22;51663;52.310;17.016;2024-03-23T07:18:17;29.70;32.40
65072;DHT22;51663;52.310;17.016;2024-03-23T07:21:18;30.00;32.20
65072;DHT22;51663;52.310;17.016;2024-03-23T07:24:20;29.70;32.40
65072;DHT22;51663;52.310;17.016;2024-03-23T07:27:21;29.90;32.00
65072;DHT22;51663;52.310;17.016;2024-03-23T07:30:22;29.80;32.20
65072;DHT22;51663;52.310;17.016;2024-03-23T07:33:23;29.70;32.20
65072;DHT22;51663;52.310;17.016;2024-03-23T07:36:25;29.90;33.00
65072;DHT22;51663;52.310;17.016;2024-03-23T07:39:26;29.50;32.30
65072;DHT22;51663;52.310;17.016;2024-03-23T07:42:29;29.90;32.30
65072;DHT22;51663;52.310;17.016;2024-03-23T07:45:30;30.30;31.50
65072;DHT22;51663;52.310;17.016;2024-03-23T07:48:32;29.70;32.20
65072;DHT22;51663;52.310;17.016;2024-03-23T07:51:33;29.70;32.40
65072;DHT22;51663;52.310;17.016;2024-03-23T07:54:36;29.70;32.60
65072;DHT22;51663;52.310;17.016;2024-03-23T07:57:37;29.60;33.00
65072;DHT22;51663;52.310;17.016;2024-03-23T08:00:38;29.30;33.10
65072;DHT22;51663;52.310;17.016;2024-03-23T08:03:41;28.90;34.10
65072;DHT22;51663;52.310;17.016;2024-03-23T08:06:46;27.90;34.90
65072;DHT22;51663;52.310;17.016;2024-03-23T08:09:47;27.10;36.70
65072;DHT22;51663;52.310;17.016;2024-03-23T08:12:49;27.20;36.50
65072;DHT22;51663;52.310;17.016;2024-03-23T08:15:50;26.90;36.70
65072;DHT22;51663;52.310;17.016;2024-03-23T08:18:52;27.40;36.70
65072;DHT22;51663;52.310;17.016;2024-03-23T08:21:53;28.20;35.70
65072;DHT22;51663;52.310;17.016;2024-03-23T08:24:55;29.00;34.40
65072;DHT22;51663;52.310;17.016;2024-03-23T08:27:56;29.00;34.40
65072;DHT22;51663;52.310;17.016;2024-03-23T08:31:01;29.30;33.80
65072;DHT22;51663;52.310;17.016;2024-03-23T08:34:02;29.30;33.40
65072;DHT22;51663;52.310;17.016;2024-03-23T08:37:03;29.50;33.70
65072;DHT22;51663;52.310;17.016;2024-03-23T08:40:05;29.80;33.20
65072;DHT22;51663;52.310;17.016;2024-03-23T08:43:06;29.80;32.90
65072;DHT22;51663;52.310;17.016;2024-03-23T08:46:09;29.90;32.40
65072;DHT22;51663;52.310;17.016;2024-03-23T08:49:11;29.40;34.00
65072;DHT22;51663;52.310;17.016;2024-03-23T08:52:13;30.10;32.80
65072;DHT22;51663;52.310;17.016;2024-03-23T08:55:14;29.40;33.20
65072;DHT22;51663;52.310;17.016;2024-03-23T08:58:15;29.70;33.50
65072;DHT22;51663;52.310;17.016;2024-03-23T09:01:18;29.70;33.40
65072;DHT22;51663;52.310;17.016;2024-03-23T09:04:19;30.10;33.10
65072;DHT22;51663;52.310;17.016;2024-03-23T09:07:21;30.40;32.50
65072;DHT22;51663;52.310;17.016;2024-03-23T09:10:22;30.40;32.60
65072;DHT22;51663;52.310;17.016;2024-03-23T09:13:23;29.60;34.20
65072;DHT22;51663;52.310;17.016;2024-03-23T09:16:24;29.90;33.60
65072;DHT22;51663;52.310;17.016;2024-03-23T09:19:29;30.30;33.10
65072;DHT22;51663;52.310;17.016;2024-03-23T09:22:30;30.30;32.70
65072;DHT22;51663;52.310;17.016;2024-03-23T09:25:32;30.40;32.70
65072;DHT22;51663;52.310;17.016;2024-03-23T09:28:36;29.90;32.70
65072;DHT22;51663;52.310;17.016;2024-03-23T09:31:39;30.30;32.70
65072;DHT22;51663;52.310;17.016;2024-03-23T09:34:40;30.60;32.20
65072;DHT22;51663;52.310;17.016;2024-03-23T09:37:41;30.50;32.50
65072;DHT22;51663;52.310;17.016;2024-03-23T09:40:43;30.50;32.40
65072;DHT22;51663;52.310;17.016;2024-03-23T09:43:45;30.20;32.60
65072;DHT22;51663;52.310;17.016;2024-03-23T09:46:48;29.20;33.70
65072;DHT22;51663;52.310;17.016;2024-03-23T09:49:50;29.70;33.40
65072;DHT22;51663;52.310;17.016;2024-03-23T09:52:51;29.50;33.40
65072;DHT22;51663;52.310;17.016;2024-03-23T09:55:53;28.80;34.60
65072;DHT22;51663;52.310;17.016;2024-03-23T09:59:03;29.50;33.70
65072;DHT22;51663;52.310;17.016;2024-03-23T10:02:05;29.50;33.10
65072;DHT22;51663;52.310;17.016;2024-03-23T10:05:22;29.50;33.80
65072;DHT22;51663;52.310;17.016;2024-03-23T10:08:24;29.30;33.30
65072;DHT22;51663;52.310;17.016;2024-03-23T10:11:26;29.20;33.50
65072;DHT22;51663;52.310;17.016;2024-03-23T10:14:30;29.70;33.40
65072;DHT22;51663;52.310;17.016;2024-03-23T10:17:31;29.90;33.20
65072;DHT22;51663;52.310;17.016;2024-03-23T10:20:32;30.20;32.50
65072;DHT22;51663;52.310;17.016;2024-03-23T10:23:41;30.30;32.60
65072;DHT22;51663;52.310;17.016;2024-03-23T10:26:42;30.00;33.00
65072;DHT22;51663;52.310;17.016;2024-03-23T10:29:44;30.10;32.90
65072;DHT22;51663;52.310;17.016;2024-03-23T10:32:46;30.00;32.90
65072;DHT22;51663;52.310;17.016;2024-03-23T10:35:50;30.10;32.60
65072;DHT22;51663;52.310;17.016;2024-03-23T10:38:54;29.60;33.00
65072;DHT22;51663;52.310;17.016;2024-03-23T10:41:56;29.10;33.60
65072;DHT22;51663;52.310;17.016;2024-03-23T10:44:58;28.90;34.30
65072;DHT22;51663;52.310;17.016;2024-03-23T10:47:59;28.70;34.20
65072;DHT22;51663;52.310;17.016;2024-03-23T10:51:01;28.30;35.80
65072;DHT22;51663;52.310;17.016;2024-03-23T10:54:04;28.30;35.80
65072;DHT22;51663;52.310;17.016;2024-03-23T10:57:15;28.10;35.00
65072;DHT22;51663;52.310;17.016;2024-03-23T11:00:18;28.00;36.10
65072;DHT22;51663;52.310;17.016;2024-03-23T11:03:32;28.20;35.50
65072;DHT22;51663;52.310;17.016;2024-03-23T11:06:38;28.40;35.50
65072;DHT22;51663;52.310;17.016;2024-03-23T11:09:41;28.30;35.00
65072;DHT22;51663;52.310;17.016;2024-03-23T11:12:45;28.20;34.90
65072;DHT22;51663;52.310;17.016;2024-03-23T11:15:47;27.00;36.70
65072;DHT22;51663;52.310;17.016;2024-03-23T11:18:48;28.00;36.00
65072;DHT22;51663;52.310;17.016;2024-03-23T11:21:54;27.90;35.60
65072;DHT22;51663;52.310;17.016;2024-03-23T11:24:55;27.20;36.30
65072;DHT22;51663;52.310;17.016;2024-03-23T11:27:58;26.30;37.70
65072;DHT22;51663;52.310;17.016;2024-03-23T11:31:10;26.50;38.00
65072;DHT22;51663;52.310;17.016;2024-03-23T11:34:12;26.20;37.60
65072;DHT22;51663;52.310;17.016;2024-03-23T11:37:13;26.50;37.80
65072;DHT22;51663;52.310;17.016;2024-03-23T11:40:19;26.10;38.10
65072;DHT22;51663;52.310;17.016;2024-03-23T11:43:20;25.00;39.50
65072;DHT22;51663;52.310;17.016;2024-03-23T11:46:23;25.80;39.40
65072;DHT22;51663;52.310;17.016;2024-03-23T11:49:26;26.30;38.00
65072;DHT22;51663;52.310;17.016;2024-03-23T11:52:28;26.80;37.40
65072;DHT22;51663;52.310;17.016;2024-03-23T11:55:29;27.60;36.20
65072;DHT22;51663;52.310;17.016;2024-03-23T11:58:30;27.10;36.00
65072;DHT22;51663;52.310;17.016;2024-03-23T12:01:31;27.70;36.00
65072;DHT22;51663;52.310;17.016;2024-03-23T12:04:33;27.60;36.10
65072;DHT22;51663;52.310;17.016;2024-03-23T12:07:36;28.30;35.60
65072;DHT22;51663;52.310;17.016;2024-03-23T12:10:38;28.30;34.90
65072;DHT22;51663;52.310;17.016;2024-03-23T12:13:40;28.20;34.50
65072;DHT22;51663;52.310;17.016;2024-03-23T12:16:44;28.20;35.00
65072;DHT22;51663;52.310;17.016;2024-03-23T12:19:46;28.30;34.70
65072;DHT22;51663;52.310;17.016;2024-03-23T12:22:47;28.10;34.80
65072;DHT22;51663;52.310;17.016;2024-03-23T12:25:49;28.50;34.50
65072;DHT22;51663;52.310;17.016;2024-03-23T12:28:50;26.70;37.00
65072;DHT22;51663;52.310;17.016;2024-03-23T12:31:52;26.90;37.20
65072;DHT22;51663;52.310;17.016;2024-03-23T12:34:53;26.50;37.80
65072;DHT22;51663;52.310;17.016;2024-03-23T12:37:54;26.80;37.60
65072;DHT22;51663;52.310;17.016;2024-03-23T12:40:56;26.80;37.50
65072;DHT22;51663;52.310;17.016;2024-03-23T12:43:57;26.50;37.80
65072;DHT22;51663;52.310;17.016;2024-03-23T12:46:58;26.40;37.10
65072;DHT22;51663;52.310;17.016;2024-03-23T12:49:59;26.10;37.70
65072;DHT22;51663;52.310;17.016;2024-03-23T12:53:00;26.70;37.70
65072;DHT22;51663;52.310;17.016;2024-03-23T12:56:02;27.10;36.90
65072;DHT22;51663;52.310;17.016;2024-03-23T12:59:04;27.20;36.40
65072;DHT22;51663;52.310;17.016;2024-03-23T13:02:05;27.30;36.80
65072;DHT22;51663;52.310;17.016;2024-03-23T13:05:08;27.20;36.50
65072;DHT22;51663;52.310;17.016;2024-03-23T13:08:12;27.50;36.50
65072;DHT22;51663;52.310;17.016;2024-03-23T13:11:14;27.60;35.80
65072;DHT22;51663;52.310;17.016;2024-03-23T13:14:16;27.40;35.60
65072;DHT22;51663;52.310;17.016;2024-03-23T13:17:18;26.60;36.90
65072;DHT22;51663;52.310;17.016;2024-03-23T13:20:19;26.20;37.80
65072;DHT22;51663;52.310;17.016;2024-03-23T13:23:21;26.40;38.70
65072;DHT22;51663;52.310;17.016;2024-03-23T13:26:22;25.80;38.40
65072;DHT22;51663;52.310;17.016;2024-03-23T13:29:24;24.50;40.30
65072;DHT22;51663;52.310;17.016;2024-03-23T13:32:25;24.10;41.30
65072;DHT22;51663;52.310;17.016;2024-03-23T13:35:26;23.20;41.20
65072;DHT22;51663;52.310;17.016;2024-03-23T13:38:27;22.10;43.50
65072;DHT22;51663;52.310;17.016;2024-03-23T13:41:29;21.40;44.10
65072;DHT22;51663;52.310;17.016;2024-03-23T13:44:30;20.80;45.00
65072;DHT22;51663;52.310;17.016;2024-03-23T13:47:32;20.90;44.70
65072;DHT22;51663;52.310;17.016;2024-03-23T13:50:33;21.40;43.20
65072;DHT22;51663;52.310;17.016;2024-03-23T13:53:34;20.70;44.70
65072;DHT22;51663;52.310;17.016;2024-03-23T13:56:35;20.70;44.10
65072;DHT22;51663;52.310;17.016;2024-03-23T13:59:37;19.40;45.90
65072;DHT22;51663;52.310;17.016;2024-03-23T14:02:38;18.70;48.00
65072;DHT22;51663;52.310;17.016;2024-03-23T14:05:40;18.30;47.80
65072;DHT22;51663;52.310;17.016;2024-03-23T14:08:41;17.50;49.40
65072;DHT22;51663;52.310;17.016;2024-03-23T14:11:44;17.70;49.70
65072;DHT22;51663;52.310;17.016;2024-03-23T14:14:45;18.00;48.90
65072;DHT22;51663;52.310;17.016;2024-03-23T14:17:46;18.30;47.60
65072;DHT22;51663;52.310;17.016;2024-03-23T14:20:47;19.30;46.10
65072;DHT22;51663;52.310;17.016;2024-03-23T14:23:49;20.50;43.30
65072;DHT22;51663;52.310;17.016;2024-03-23T14:26:50;19.60;44.00
65072;DHT22;51663;52.310;17.016;2024-03-23T14:29:51;19.90;44.20
65072;DHT22;51663;52.310;17.016;2024-03-23T14:32:53;20.90;41.90
65072;DHT22;51663;52.310;17.016;2024-03-23T14:35:55;20.60;42.20
65072;DHT22;51663;52.310;17.016;2024-03-23T14:39:00;21.40;40.90
65072;DHT22;51663;52.310;17.016;2024-03-23T14:42:01;21.60;40.90
65072;DHT22;51663;52.310;17.016;2024-03-23T14:45:03;21.40;40.80
65072;DHT22;51663;52.310;17.016;2024-03-23T14:48:05;22.40;40.00
65072;DHT22;51663;52.310;17.016;2024-03-23T14:51:06;23.60;37.30
65072;DHT22;51663;52.310;17.016;2024-03-23T14:54:09;24.30;35.50
65072;DHT22;51663;52.310;17.016;2024-03-23T14:57:11;24.50;35.80
65072;DHT22;51663;52.310;17.016;2024-03-23T15:00:13;25.20;34.60
65072;DHT22;51663;52.310;17.016;2024-03-23T15:03:14;25.80;33.80
65072;DHT22;51663;52.310;17.016;2024-03-23T15:06:16;26.10;32.80
65072;DHT22;51663;52.310;17.016;2024-03-23T15:09:17;26.10;32.70
65072;DHT22;51663;52.310;17.016;2024-03-23T15:12:19;26.50;32.80
65072;DHT22;51663;52.310;17.016;2024-03-23T15:15:20;26.40;32.70
65072;DHT22;51663;52.310;17.016;2024-03-23T15:18:21;26.60;32.40
65072;DHT22;51663;52.310;17.016;2024-03-23T15:21:29;26.60;31.90
65072;DHT22;51663;52.310;17.016;2024-03-23T15:24:31;26.40;32.50
65072;DHT22;51663;52.310;17.016;2024-03-23T15:27:32;26.70;32.30
65072;DHT22;51663;52.310;17.016;2024-03-23T15:30:33;26.80;32.20
65072;DHT22;51663;52.310;17.016;2024-03-23T15:33:35;27.10;31.50
65072;DHT22;51663;52.310;17.016;2024-03-23T15:36:39;27.20;32.40
65072;DHT22;51663;52.310;17.016;2024-03-23T15:39:40;27.20;31.70
65072;DHT22;51663;52.310;17.016;2024-03-23T15:42:44;27.30;31.10
65072;DHT22;51663;52.310;17.016;2024-03-23T15:45:54;27.20;31.10
65072;DHT22;51663;52.310;17.016;2024-03-23T15:48:55;27.30;31.20
65072;DHT22;51663;52.310;17.016;2024-03-23T15:51:57;27.10;31.00
65072;DHT22;51663;52.310;17.016;2024-03-23T15:54:59;27.40;30.80
65072;DHT22;51663;52.310;17.016;2024-03-23T15:58:00;27.50;30.80
65072;DHT22;51663;52.310;17.016;2024-03-23T16:01:06;27.70;30.70
65072;DHT22;51663;52.310;17.016;2024-03-23T16:04:09;27.80;30.70
65072;DHT22;51663;52.310;17.016;2024-03-23T16:07:11;28.10;30.20
65072;DHT22;51663;52.310;17.016;2024-03-23T16:10:14;28.10;30.30
65072;DHT22;51663;52.310;17.016;2024-03-23T16:13:16;28.00;30.20
65072;DHT22;51663;52.310;17.016;2024-03-23T16:16:19;28.10;30.10
65072;DHT22;51663;52.310;17.016;2024-03-23T16:19:23;28.30;29.90
65072;DHT22;51663;52.310;17.016;2024-03-23T16:22:24;28.30;29.70
65072;DHT22;51663;52.310;17.016;2024-03-23T16:25:26;28.20;30.10
65072;DHT22;51663;52.310;17.016;2024-03-23T16:28:31;28.30;30.00
65072;DHT22;51663;52.310;17.016;2024-03-23T16:31:33;28.30;29.60
65072;DHT22;51663;52.310;17.016;2024-03-23T16:34:34;28.20;29.70
65072;DHT22;51663;52.310;17.016;2024-03-23T16:37:35;28.00;29.60
65072;DHT22;51663;52.310;17.016;2024-03-23T16:40:37;28.20;29.70
65072;DHT22;51663;52.310;17.016;2024-03-23T16:43:38;27.70;29.60
65072;DHT22;51663;52.310;17.016;2024-03-23T16:46:40;27.50;29.80
65072;DHT22;51663;52.310;17.016;2024-03-23T16:49:43;27.20;30.20
65072;DHT22;51663;52.310;17.016;2024-03-23T16:52:44;27.60;30.10
65072;DHT22;51663;52.310;17.016;2024-03-23T16:55:45;27.60;29.80
65072;DHT22;51663;52.310;17.016;2024-03-23T16:58:47;27.30;30.30
65072;DHT22;51663;52.310;17.016;2024-03-23T17:01:50;27.60;30.00
65072;DHT22;51663;52.310;17.016;2024-03-23T17:04:51;27.40;30.00
65072;DHT22;51663;52.310;17.016;2024-03-23T17:07:52;27.50;30.00
65072;DHT22;51663;52.310;17.016;2024-03-23T17:11:00;27.60;29.70
65072;DHT22;51663;52.310;17.016;2024-03-23T17:14:02;27.50;29.90
65072;DHT22;51663;52.310;17.016;2024-03-23T17:17:03;27.50;30.00
65072;DHT22;51663;52.310;17.016;2024-03-23T17:20:05;27.50;30.00
65072;DHT22;51663;52.310;17.016;2024-03-23T17:23:07;27.70;30.00
65072;DHT22;51663;52.310;17.016;2024-03-23T17:26:08;27.80;29.90
65072;DHT22;51663;52.310;17.016;2024-03-23T17:29:11;28.00;29.70
65072;DHT22;51663;52.310;17.016;2024-03-23T17:32:12;28.40;29.40
65072;DHT22;51663;52.310;17.016;2024-03-23T17:35:14;28.00;29.30
65072;DHT22;51663;52.310;17.016;2024-03-23T17:38:15;28.10;29.60
65072;DHT22;51663;52.310;17.016;2024-03-23T17:41:16;28.30;29.30
65072;DHT22;51663;52.310;17.016;2024-03-23T17:44:19;28.40;29.00
65072;DHT22;51663;52.310;17.016;2024-03-23T17:47:21;28.30;29.00
65072;DHT22;51663;52.310;17.016;2024-03-23T17:50:23;28.30;29.00
65072;DHT22;51663;52.310;17.016;2024-03-23T17:53:24;28.20;28.90
65072;DHT22;51663;52.310;17.016;2024-03-23T17:56:26;28.30;29.20
65072;DHT22;51663;52.310;17.016;2024-03-23T17:59:27;28.20;29.30
65072;DHT22;51663;52.310;17.016;2024-03-23T18:02:28;28.20;29.00
65072;DHT22;51663;52.310;17.016;2024-03-23T18:05:29;28.20;29.10
65072;DHT22;51663;52.310;17.016;2024-03-23T18:08:30;28.40;28.70
65072;DHT22;51663;52.310;17.016;2024-03-23T18:11:32;28.20;28.90
65072;DHT22;51663;52.310;17.016;2024-03-23T18:14:34;28.10;29.00
65072;DHT22;51663;52.310;17.016;2024-03-23T18:17:35;28.10;29.10
65072;DHT22;51663;52.310;17.016;2024-03-23T18:20:37;28.20;28.80
65072;DHT22;51663;52.310;17.016;2024-03-23T18:23:38;28.20;28.80
65072;DHT22;51663;52.310;17.016;2024-03-23T18:26:39;28.30;28.90
65072;DHT22;51663;52.310;17.016;2024-03-23T18:29:40;28.40;28.90
65072;DHT22;51663;52.310;17.016;2024-03-23T18:32:42;28.60;28.80
65072;DHT22;51663;52.310;17.016;2024-03-23T18:35:49;28.50;28.50
65072;DHT22;51663;52.310;17.016;2024-03-23T18:38:51;28.50;28.60
65072;DHT22;51663;52.310;17.016;2024-03-23T18:41:52;28.60;28.70
65072;DHT22;51663;52.310;17.016;2024-03-23T18:44:53;28.60;28.40
65072;DHT22;51663;52.310;17.016;2024-03-23T18:47:54;28.60;28.50
65072;DHT22;51663;52.310;17.016;2024-03-23T18:50:56;28.60;28.50
65072;DHT22;51663;52.310;17.016;2024-03-23T18:53:57;28.60;28.40
65072;DHT22;51663;52.310;17.016;2024-03-23T18:57:02;28.60;28.20
65072;DHT22;51663;52.310;17.016;2024-03-23T19:00:04;28.50;28.30
65072;DHT22;51663;52.310;17.016;2024-03-23T19:03:06;28.50;28.10
65072;DHT22;51663;52.310;17.016;2024-03-23T19:06:07;28.40;28.30
65072;DHT22;51663;52.310;17.016;2024-03-23T19:09:08;28.30;28.30
65072;DHT22;51663;52.310;17.016;2024-03-23T19:12:10;28.30;28.40
65072;DHT22;51663;52.310;17.016;2024-03-23T19:15:12;28.20;28.50
65072;DHT22;51663;52.310;17.016;2024-03-23T19:18:13;28.10;28.70
65072;DHT22;51663;52.310;17.016;2024-03-23T19:21:14;28.00;28.80
65072;DHT22;51663;52.310;17.016;2024-03-23T19:24:15;27.90;28.60
65072;DHT22;51663;52.310;17.016;2024-03-23T19:27:17;27.80;28.70
65072;DHT22;51663;52.310;17.016;2024-03-23T19:30:18;27.90;28.60
65072;DHT22;51663;52.310;17.016;2024-03-23T19:33:20;28.00;28.50
65072;DHT22;51663;52.310;17.016;2024-03-23T19:36:21;28.00;28.30
65072;DHT22;51663;52.310;17.016;2024-03-23T19:39:23;27.90;28.40
65072;DHT22;51663;52.310;17.016;2024-03-23T19:42:24;27.70;28.60